Time;durP1;ratioP1;P1;durP2;ratioP2;P2;SDS_P1;SDS_P2;PMS_P1;PMS_P2;Temp;Humidity;BMP_temperature;BMP_pressure;BME280_temperature;BME280_humidity;BME280_pressure;Samples;Min_cycle;Max_cycle;Signal;HPM_P1;HPM_P2
2021/07/08 00:01:11;;;;;;;2.63;1.30;;;26.80;77.10;;;;;;5052195;28;20029;-78
2021/07/08 00:03:37;;;;;;;1.40;1.30;;;26.80;77.30;;;;;;5052928;28;20020;-78
2021/07/08 00:06:03;;;;;;;1.50;1.40;;;26.80;77.40;;;;;;5054531;28;20075;-78
2021/07/08 00:08:29;;;;;;;1.70;1.60;;;26.70;77.40;;;;;;5056018;28;20479;-78
2021/07/08 00:10:55;;;;;;;1.40;1.30;;;26.70;77.30;;;;;;5055853;28;20562;-78
2021/07/08 00:13:28;;;;;;;1.60;1.50;;;26.60;77.50;;;;;;5054363;28;20078;-78
2021/07/08 00:15:54;;;;;;;1.83;1.73;;;26.60;77.70;;;;;;5055856;28;20021;-78
2021/07/08 00:18:22;;;;;;;3.13;1.92;;;26.50;77.60;;;;;;5055877;28;20111;-78
2021/07/08 00:20:49;;;;;;;1.73;1.63;;;26.50;77.70;;;;;;5055638;28;20037;-78
2021/07/08 00:23:17;;;;;;;1.60;1.45;;;26.50;78.10;;;;;;5055661;28;20020;-78
2021/07/08 00:25:44;;;;;;;2.42;1.48;;;26.40;78.00;;;;;;5055859;28;20106;-78
2021/07/08 00:28:15;;;;;;;1.63;1.52;;;26.40;78.40;;;;;;5055528;28;20017;-78
2021/07/08 00:30:42;;;;;;;1.75;1.63;;;26.40;78.30;;;;;;5054084;28;20025;-78
2021/07/08 00:33:09;;;;;;;4.25;1.50;;;26.30;78.50;;;;;;5054207;28;20029;-78
2021/07/08 00:35:36;;;;;;;1.48;1.20;;;26.20;78.40;;;;;;5055117;28;20017;-78
2021/07/08 00:38:03;;;;;;;1.73;1.60;;;26.20;78.30;;;;;;5053673;28;20021;-78
2021/07/08 00:40:29;;;;;;;1.65;1.55;;;26.20;78.30;;;;;;5053942;28;20098;-78
2021/07/08 00:42:55;;;;;;;2.08;1.42;;;26.20;78.40;;;;;;5055364;28;20029;-78
2021/07/08 00:45:22;;;;;;;1.40;1.30;;;26.20;78.40;;;;;;5053781;28;20541;-78
2021/07/08 00:47:48;;;;;;;2.15;1.70;;;26.20;78.60;;;;;;5055295;28;20052;-78
2021/07/08 00:50:17;;;;;;;1.38;1.38;;;26.10;78.40;;;;;;5054948;28;20087;-78
2021/07/08 00:52:43;;;;;;;1.35;1.25;;;26.10;78.40;;;;;;5054904;28;20090;-78
2021/07/08 00:55:10;;;;;;;1.20;1.20;;;26.10;78.20;;;;;;5055226;28;20033;-78
2021/07/08 00:57:39;;;;;;;2.08;1.60;;;26.10;78.30;;;;;;5055179;28;20021;-78
2021/07/08 01:00:05;;;;;;;2.00;1.35;;;26.10;77.50;;;;;;5054956;28;20032;-78
2021/07/08 01:02:31;;;;;;;1.38;1.27;;;26.20;77.80;;;;;;5054315;28;20029;-78
2021/07/08 01:04:58;;;;;;;1.50;1.40;;;26.20;78.30;;;;;;5054975;28;20032;-78
2021/07/08 01:07:24;;;;;;;1.63;1.52;;;26.10;78.00;;;;;;5054925;28;20364;-78
2021/07/08 01:09:51;;;;;;;1.70;1.60;;;26.10;78.00;;;;;;5054799;28;20024;-78
2021/07/08 01:12:17;;;;;;;1.20;1.15;;;26.10;77.90;;;;;;5053064;28;20175;-78
2021/07/08 01:14:44;;;;;;;1.98;1.45;;;26.10;77.70;;;;;;5054374;28;20029;-78
2021/07/08 01:17:10;;;;;;;1.60;1.50;;;26.10;77.80;;;;;;5054690;28;20029;-77
2021/07/08 01:19:38;;;;;;;2.13;1.30;;;26.10;78.10;;;;;;5053358;28;20119;-78
2021/07/08 01:22:04;;;;;;;1.60;1.50;;;26.10;79.30;;;;;;5053313;28;20387;-78
2021/07/08 01:24:31;;;;;;;2.40;1.40;;;26.10;78.20;;;;;;5053297;28;20024;-78
2021/07/08 01:26:58;;;;;;;2.15;1.42;;;26.10;77.80;;;;;;5053230;28;20021;-78
2021/07/08 01:29:24;;;;;;;1.50;1.50;;;26.20;77.80;;;;;;5053064;28;20024;-78
2021/07/08 01:31:50;;;;;;;1.88;1.75;;;26.20;77.50;;;;;;5054234;28;20045;-78
2021/07/08 01:34:16;;;;;;;1.10;1.08;;;26.10;77.50;;;;;;5054282;28;20053;-78
2021/07/08 01:36:42;;;;;;;1.70;1.58;;;26.10;77.60;;;;;;5053171;28;20382;-78
2021/07/08 01:39:08;;;;;;;2.47;1.65;;;26.10;78.30;;;;;;5054165;28;20391;-78
2021/07/08 01:41:34;;;;;;;2.67;1.45;;;26.10;79.40;;;;;;5052865;28;20025;-78
2021/07/08 01:44:00;;;;;;;1.30;1.30;;;26.00;79.80;;;;;;5054194;28;20021;-78
2021/07/08 01:46:27;;;;;;;1.45;1.35;;;26.00;78.40;;;;;;5054232;28;20021;-78
2021/07/08 01:48:53;;;;;;;1.63;1.50;;;26.00;77.70;;;;;;5053982;28;20036;-79
2021/07/08 01:51:31;;;;;;;2.63;1.40;;;26.00;78.50;;;;;;5054103;28;20509;-78
2021/07/08 01:53:59;;;;;;;3.00;1.50;;;26.00;78.20;;;;;;5052613;28;20139;-78
2021/07/08 01:56:26;;;;;;;1.85;1.75;;;26.00;79.20;;;;;;5052707;28;20074;-78
2021/07/08 01:58:52;;;;;;;1.52;1.42;;;26.00;79.90;;;;;;5065826;28;20024;-78
2021/07/08 02:01:22;;;;;;;3.20;1.55;;;26.00;80.70;;;;;;5073699;28;20094;-78
2021/07/08 02:03:49;;;;;;;1.52;1.45;;;25.90;80.20;;;;;;5072515;28;20024;-78
2021/07/08 02:06:14;;;;;;;1.55;1.45;;;25.90;80.00;;;;;;5072519;28;20028;-78
2021/07/08 02:08:41;;;;;;;1.40;1.40;;;25.90;80.50;;;;;;5068545;28;20032;-78
2021/07/08 02:11:08;;;;;;;2.15;1.38;;;25.90;82.00;;;;;;5053242;28;20033;-78
2021/07/08 02:13:35;;;;;;;1.90;1.75;;;25.80;82.10;;;;;;5053511;28;20025;-78
2021/07/08 02:16:08;;;;;;;1.67;1.58;;;25.70;83.50;;;;;;5053524;28;20025;-78
2021/07/08 02:18:35;;;;;;;1.92;1.30;;;25.70;83.30;;;;;;5053592;28;20053;-78
2021/07/08 02:21:01;;;;;;;1.40;1.30;;;25.70;83.20;;;;;;5053320;28;20029;-78
2021/07/08 02:23:27;;;;;;;1.17;1.17;;;25.60;83.30;;;;;;5052200;28;20098;-78
2021/07/08 02:25:53;;;;;;;1.70;1.60;;;25.50;84.30;;;;;;5051733;28;20017;-78
2021/07/08 02:28:18;;;;;;;2.60;1.70;;;25.40;85.30;;;;;;5051876;28;20029;-78
2021/07/08 02:30:44;;;;;;;1.80;1.70;;;25.30;86.10;;;;;;5053150;28;20032;-78
2021/07/08 02:33:10;;;;;;;1.50;1.40;;;25.40;85.60;;;;;;5051949;28;20079;-78
2021/07/08 02:35:36;;;;;;;2.45;1.30;;;25.30;86.00;;;;;;5053260;28;20557;-78
2021/07/08 02:38:03;;;;;;;1.55;1.45;;;25.30;87.00;;;;;;5053361;28;20057;-78
2021/07/08 02:40:31;;;;;;;1.60;1.50;;;25.30;85.80;;;;;;5051761;28;20029;-78
2021/07/08 02:42:59;;;;;;;2.20;1.42;;;25.30;85.50;;;;;;5052954;28;20033;-78
2021/07/08 02:45:31;;;;;;;1.50;1.40;;;25.20;85.80;;;;;;5051916;28;20394;-78
2021/07/08 02:47:58;;;;;;;;;;;25.10;86.20;;;;;;5052277;28;20086;-78
2021/07/08 02:50:25;;;;;;;1.67;1.23;;;25.10;85.90;;;;;;5051540;28;19948;-78
2021/07/08 02:52:51;;;;;;;1.60;1.50;;;25.00;85.60;;;;;;5051578;28;20128;-78
2021/07/08 02:55:17;;;;;;;1.40;1.30;;;25.00;86.00;;;;;;5051800;28;20387;-78
2021/07/08 02:57:45;;;;;;;1.55;1.45;;;25.00;85.50;;;;;;5052689;28;20547;-78
2021/07/08 03:00:14;;;;;;;1.48;1.40;;;25.10;87.00;;;;;;5051652;28;20055;-78
2021/07/08 03:02:40;;;;;;;1.85;1.75;;;25.00;87.00;;;;;;5052788;28;20047;-78
2021/07/08 03:05:07;;;;;;;1.27;1.20;;;25.00;86.60;;;;;;5052990;28;20539;-78
2021/07/08 03:07:33;;;;;;;1.20;1.20;;;24.90;87.30;;;;;;5052885;28;20031;-78
2021/07/08 03:09:59;;;;;;;1.63;1.52;;;24.80;87.40;;;;;;5052744;28;20032;-78
2021/07/08 03:12:25;;;;;;;1.60;1.50;;;24.80;87.10;;;;;;5052411;28;20436;-78
2021/07/08 03:14:50;;;;;;;1.80;1.70;;;24.80;88.30;;;;;;5052773;28;20048;-78
2021/07/08 03:17:16;;;;;;;4.70;1.27;;;24.80;87.00;;;;;;5052806;28;20032;-78
2021/07/08 03:19:42;;;;;;;1.30;1.30;;;24.80;86.50;;;;;;5052609;28;20088;-78
2021/07/08 03:22:08;;;;;;;1.60;1.50;;;24.80;87.80;;;;;;5052330;28;20028;-78
2021/07/08 03:24:34;;;;;;;1.60;1.50;;;24.80;87.50;;;;;;5051487;28;20486;-79
2021/07/08 03:26:59;;;;;;;1.52;1.42;;;24.80;86.80;;;;;;5052704;28;20111;-79
2021/07/08 03:29:25;;;;;;;1.73;1.63;;;24.80;86.50;;;;;;5052496;28;20031;-78
2021/07/08 03:31:51;;;;;;;2.05;1.55;;;24.90;87.10;;;;;;5052474;28;20021;-78
2021/07/08 03:34:17;;;;;;;1.80;1.52;;;24.90;87.10;;;;;;5052677;28;20028;-78
2021/07/08 03:36:42;;;;;;;1.13;1.13;;;24.70;87.20;;;;;;5052797;28;20079;-78
2021/07/08 03:39:08;;;;;;;1.67;1.55;;;24.80;85.10;;;;;;5055779;28;20029;-78
2021/07/08 03:41:34;;;;;;;1.40;1.23;;;24.80;84.70;;;;;;5055192;28;20033;-78
2021/07/08 03:44:00;;;;;;;2.70;1.30;;;24.80;84.90;;;;;;5056555;28;20028;-78
2021/07/08 03:46:26;;;;;;;1.65;1.55;;;24.80;85.10;;;;;;5056340;28;20040;-78
2021/07/08 03:48:52;;;;;;;1.60;1.50;;;24.90;86.40;;;;;;5056238;28;20029;-78
2021/07/08 03:51:17;;;;;;;1.98;1.77;;;24.80;87.10;;;;;;5055044;28;20047;-78
2021/07/08 03:53:43;;;;;;;2.05;1.40;;;24.80;86.50;;;;;;5054873;28;20073;-78
2021/07/08 03:56:09;;;;;;;1.55;1.45;;;24.80;86.60;;;;;;5056250;28;20013;-78
2021/07/08 03:58:36;;;;;;;5.28;1.60;;;24.80;86.30;;;;;;5056314;28;20475;-78
2021/07/08 04:01:02;;;;;;;1.48;1.38;;;24.80;87.00;;;;;;5054933;28;20025;-78
2021/07/08 04:03:28;;;;;;;2.08;1.20;;;24.80;86.70;;;;;;5056024;28;20072;-78
2021/07/08 04:05:55;;;;;;;1.50;1.40;;;24.80;85.60;;;;;;5054706;28;20057;-78
2021/07/08 04:08:21;;;;;;;1.17;1.17;;;24.70;85.30;;;;;;5055979;28;20081;-78
2021/07/08 04:10:47;;;;;;;1.60;1.50;;;24.70;85.50;;;;;;5056111;28;20029;-78
2021/07/08 04:13:16;;;;;;;1.58;1.48;;;24.80;85.80;;;;;;5055979;28;20074;-78
2021/07/08 04:15:43;;;;;;;1.67;1.20;;;24.70;85.80;;;;;;5055922;28;20023;-78
2021/07/08 04:18:10;;;;;;;1.85;1.67;;;24.70;84.70;;;;;;5055645;28;20493;-78
2021/07/08 04:20:36;;;;;;;3.50;1.65;;;24.80;85.30;;;;;;5055627;28;20033;-78
2021/07/08 04:23:04;;;;;;;1.70;1.60;;;24.80;86.30;;;;;;5055747;28;20028;-78
2021/07/08 04:25:30;;;;;;;3.72;1.70;;;24.80;87.50;;;;;;5054483;28;20079;-78
2021/07/08 04:27:56;;;;;;;1.40;1.35;;;24.80;86.70;;;;;;5055772;28;20021;-78
2021/07/08 04:30:23;;;;;;;1.20;1.20;;;24.80;86.40;;;;;;5055161;28;20040;-78
2021/07/08 04:32:50;;;;;;;1.80;1.42;;;24.80;87.60;;;;;;5055603;28;20490;-78
2021/07/08 04:35:33;;;;;;;3.88;1.63;;;24.90;87.90;;;;;;5055587;28;20112;-78
2021/07/08 04:38:00;;;;;;;1.80;1.70;;;24.80;87.70;;;;;;5054185;28;20017;-78
2021/07/08 04:40:26;;;;;;;1.42;1.33;;;24.80;87.40;;;;;;5055359;28;20041;-78
2021/07/08 04:42:52;;;;;;;1.80;1.70;;;24.80;87.20;;;;;;5054926;28;20036;-78
2021/07/08 04:45:19;;;;;;;1.90;1.70;;;24.90;84.80;;;;;;5055429;28;20406;-78
2021/07/08 04:47:46;;;;;;;1.33;1.23;;;25.00;85.30;;;;;;5055240;28;20017;-78
2021/07/08 04:50:18;;;;;;;1.83;1.38;;;25.00;84.70;;;;;;5052846;28;20037;-78
2021/07/08 04:52:45;;;;;;;2.22;1.75;;;25.00;84.30;;;;;;5055051;28;20047;-78
2021/07/08 04:55:16;;;;;;;1.67;1.40;;;25.10;85.00;;;;;;5055196;28;20092;-78
2021/07/08 04:57:41;;;;;;;2.85;1.40;;;25.10;85.00;;;;;;5069135;28;20113;-78
2021/07/08 05:00:12;;;;;;;1.30;1.30;;;25.10;85.50;;;;;;5054615;28;20525;-78
2021/07/08 05:02:39;;;;;;;1.85;1.75;;;25.10;85.70;;;;;;5054874;28;20033;-78
2021/07/08 05:05:07;;;;;;;1.42;1.40;;;25.00;86.60;;;;;;5055068;28;20025;-78
2021/07/08 05:07:33;;;;;;;1.35;1.30;;;25.00;87.00;;;;;;5054914;28;20009;-78
2021/07/08 05:09:59;;;;;;;3.15;1.63;;;25.10;86.80;;;;;;5053398;28;20044;-78
2021/07/08 05:12:24;;;;;;;2.08;1.40;;;25.10;86.60;;;;;;5053587;28;20021;-78
2021/07/08 05:14:50;;;;;;;3.10;1.90;;;25.10;86.50;;;;;;5053550;28;20672;-78
2021/07/08 05:17:18;;;;;;;2.20;1.75;;;25.10;86.50;;;;;;5054113;28;20075;-78
2021/07/08 05:19:44;;;;;;;1.50;1.50;;;25.20;86.00;;;;;;5054448;28;20479;-78
2021/07/08 05:22:10;;;;;;;7.32;1.65;;;25.20;85.80;;;;;;5054617;28;20029;-78
2021/07/08 05:24:37;;;;;;;1.38;1.27;;;25.30;85.20;;;;;;5053211;28;20040;-78
2021/07/08 05:27:03;;;;;;;1.67;1.55;;;25.40;85.40;;;;;;5054563;28;20017;-78
2021/07/08 05:29:30;;;;;;;1.90;1.48;;;25.50;84.90;;;;;;5054036;28;20056;-78
2021/07/08 05:31:56;;;;;;;1.40;1.30;;;25.50;85.20;;;;;;5052824;28;20067;-78
2021/07/08 05:34:22;;;;;;;2.28;1.38;;;25.50;85.70;;;;;;5054290;28;20433;-79
2021/07/08 05:36:48;;;;;;;1.40;1.30;;;25.60;86.10;;;;;;5054191;28;20036;-78
2021/07/08 05:39:14;;;;;;;3.22;1.58;;;25.70;85.30;;;;;;5054335;28;20021;-78
2021/07/08 05:41:40;;;;;;;1.60;1.50;;;25.80;85.20;;;;;;5054155;28;20479;-78
2021/07/08 05:44:06;;;;;;;3.60;1.20;;;25.90;85.10;;;;;;5054128;28;20021;-78
2021/07/08 05:46:33;;;;;;;1.88;1.42;;;25.90;85.10;;;;;;5054162;28;20102;-78
2021/07/08 05:48:59;;;;;;;1.67;1.58;;;26.00;85.30;;;;;;5054025;28;20028;-78
2021/07/08 05:51:24;;;;;;;2.33;2.08;;;26.10;84.70;;;;;;5054044;28;20391;-78
2021/07/08 05:53:51;;;;;;;1.73;1.63;;;26.10;84.60;;;;;;5053826;28;20045;-78
2021/07/08 05:56:16;;;;;;;2.60;1.67;;;26.20;85.00;;;;;;5053879;28;20021;-78
2021/07/08 05:58:42;;;;;;;2.65;1.60;;;26.30;84.60;;;;;;5053792;28;20043;-78
2021/07/08 06:01:08;;;;;;;3.30;1.52;;;26.40;84.60;;;;;;5052371;28;20501;-78
2021/07/08 06:03:34;;;;;;;3.72;1.60;;;26.40;83.90;;;;;;5052587;28;20020;-78
2021/07/08 06:05:59;;;;;;;1.52;1.42;;;26.50;84.00;;;;;;5052499;28;20501;-78
2021/07/08 06:08:25;;;;;;;2.45;1.60;;;26.50;84.00;;;;;;5052413;28;20036;-78
2021/07/08 06:10:51;;;;;;;1.30;1.20;;;26.60;83.70;;;;;;5053655;28;20029;-78
2021/07/08 06:13:16;;;;;;;4.25;1.70;;;26.70;83.80;;;;;;5053498;28;20021;-78
2021/07/08 06:15:42;;;;;;;1.42;1.40;;;26.70;83.80;;;;;;5053681;28;20024;-78
2021/07/08 06:18:08;;;;;;;1.50;1.40;;;26.70;83.80;;;;;;5053561;28;20079;-78
2021/07/08 06:20:34;;;;;;;1.77;1.45;;;26.70;83.80;;;;;;5053215;28;20036;-78
2021/07/08 06:23:00;;;;;;;5.07;1.90;;;26.80;84.20;;;;;;5052227;28;20084;-78
2021/07/08 06:25:30;;;;;;;1.50;1.38;;;26.80;83.60;;;;;;5052252;28;20412;-78
2021/07/08 06:27:57;;;;;;;2.03;1.92;;;26.80;84.20;;;;;;5053390;28;20106;-78
2021/07/08 06:30:22;;;;;;;1.52;1.42;;;26.90;84.30;;;;;;5052056;28;20392;-78
2021/07/08 06:32:48;;;;;;;1.67;1.58;;;26.80;85.30;;;;;;5051958;28;20031;-75
2021/07/08 06:35:18;;;;;;;1.70;1.58;;;26.80;85.50;;;;;;5053012;28;20025;-77
2021/07/08 06:37:45;;;;;;;4.55;1.60;;;26.80;85.40;;;;;;5053211;28;20025;-77
2021/07/08 06:40:11;;;;;;;1.85;1.70;;;26.80;86.20;;;;;;5053117;28;20021;-77
2021/07/08 06:42:38;;;;;;;1.65;1.55;;;26.90;87.40;;;;;;5053160;28;20029;-77
2021/07/08 06:45:06;;;;;;;3.20;1.50;;;26.90;88.50;;;;;;5053385;28;20021;-77
2021/07/08 06:47:38;;;;;;;1.70;1.60;;;26.90;89.40;;;;;;5053181;28;20021;-77
2021/07/08 06:50:06;;;;;;;1.77;1.67;;;27.00;91.20;;;;;;5051637;28;20082;-77
2021/07/08 06:52:32;;;;;;;1.98;1.83;;;27.00;91.30;;;;;;5050603;28;20036;-77
2021/07/08 06:54:59;;;;;;;2.72;1.70;;;27.00;92.40;;;;;;5052208;28;20032;-77
2021/07/08 06:57:24;;;;;;;2.95;1.52;;;26.90;92.10;;;;;;5050840;28;20779;-77
2021/07/08 06:59:50;;;;;;;1.17;1.15;;;26.90;88.50;;;;;;5050272;28;20047;-77
2021/07/08 07:02:16;;;;;;;1.23;1.23;;;26.80;87.30;;;;;;5051844;28;20036;-77
2021/07/08 07:04:41;;;;;;;2.88;2.15;;;26.80;87.00;;;;;;5051087;28;20027;-78
2021/07/08 07:07:07;;;;;;;5.45;1.58;;;26.80;88.00;;;;;;5051837;28;20391;-77
2021/07/08 07:09:33;;;;;;;1.80;1.60;;;26.80;89.60;;;;;;5050213;28;20083;-77
2021/07/08 07:12:09;;;;;;;3.35;2.03;;;26.90;90.60;;;;;;5050916;28;20437;-77
2021/07/08 07:14:35;;;;;;;5.93;1.85;;;26.90;91.00;;;;;;5050927;28;20033;-77
2021/07/08 07:17:02;;;;;;;2.28;1.80;;;27.00;92.70;;;;;;5052362;28;20025;-77
2021/07/08 07:19:28;;;;;;;2.30;2.20;;;27.00;93.40;;;;;;5052431;28;20029;-77
2021/07/08 07:22:00;;;;;;;1.85;1.75;;;26.90;95.80;;;;;;5050959;28;20396;-77
2021/07/08 07:24:26;;;;;;;1.65;1.55;;;26.80;94.70;;;;;;5052267;28;20029;-77
2021/07/08 07:26:52;;;;;;;1.23;1.20;;;26.70;91.70;;;;;;5051972;28;20020;-75
2021/07/08 07:29:18;;;;;;;1.98;1.35;;;26.60;91.20;;;;;;5051868;28;20027;-75
2021/07/08 07:31:44;;;;;;;1.67;1.58;;;26.70;91.90;;;;;;5051673;28;20079;-76
2021/07/08 07:34:10;;;;;;;1.58;1.40;;;26.60;91.50;;;;;;5050417;28;20108;-76
2021/07/08 07:36:36;;;;;;;1.63;1.60;;;26.70;91.60;;;;;;5051793;28;20024;-75
2021/07/08 07:39:03;;;;;;;1.60;1.50;;;26.80;92.90;;;;;;5051382;28;20116;-75
2021/07/08 07:41:29;;;;;;;1.77;1.50;;;26.90;93.80;;;;;;5049727;28;20032;-75
2021/07/08 07:43:54;;;;;;;2.42;1.90;;;27.00;94.50;;;;;;5048626;28;20372;-75
2021/07/08 07:46:20;;;;;;;1.95;1.85;;;27.00;96.40;;;;;;5051139;28;20053;-75
2021/07/08 07:48:46;;;;;;;2.88;2.65;;;27.10;95.20;;;;;;5050156;28;20032;-76
2021/07/08 07:51:12;;;;;;;2.10;1.90;;;27.20;96.30;;;;;;5051153;28;20447;-75
2021/07/08 07:53:38;;;;;;;3.55;2.60;;;27.20;96.50;;;;;;5050998;28;20120;-75
2021/07/08 07:56:04;;;;;;;2.50;2.40;;;27.30;97.80;;;;;;5050360;28;20032;-76
2021/07/08 07:58:31;;;;;;;5.60;2.58;;;27.40;95.20;;;;;;5051754;28;20058;-76
2021/07/08 08:00:57;;;;;;;2.58;2.35;;;27.40;94.20;;;;;;5050538;28;20017;-75
2021/07/08 08:03:23;;;;;;;3.22;2.33;;;27.40;93.40;;;;;;5051720;28;20013;-75
2021/07/08 08:08:27;;;;;;;3.15;2.40;;;27.50;93.50;;;;;;5054214;28;20024;-75
2021/07/08 08:08:40;;;;;;;2.28;2.15;;;27.60;94.40;;;;;;5051393;28;20487;-76
2021/07/08 08:11:07;;;;;;;6.68;3.00;;;27.70;94.40;;;;;;5049916;28;20083;-76
2021/07/08 08:13:33;;;;;;;5.20;2.47;;;27.80;94.20;;;;;;5050314;28;20078;-75
2021/07/08 08:15:59;;;;;;;5.72;2.33;;;27.90;94.40;;;;;;5050256;28;20429;-75
2021/07/08 08:18:25;;;;;;;4.13;2.10;;;28.00;94.10;;;;;;5051545;28;20013;-75
2021/07/08 08:20:52;;;;;;;2.35;2.10;;;28.00;92.80;;;;;;5051669;28;20040;-76
2021/07/08 08:23:18;;;;;;;5.07;1.73;;;28.10;93.00;;;;;;5051553;28;20024;-75
2021/07/08 08:25:44;;;;;;;2.20;2.10;;;28.30;93.20;;;;;;5054033;28;20024;-75
2021/07/08 08:28:10;;;;;;;2.50;2.30;;;28.40;92.80;;;;;;5054986;28;20021;-75
2021/07/08 08:30:36;;;;;;;2.60;2.28;;;28.50;91.60;;;;;;5055282;28;20032;-75
2021/07/08 08:33:02;;;;;;;1.80;1.70;;;28.50;91.30;;;;;;5053880;28;20021;-75
2021/07/08 08:35:28;;;;;;;3.67;2.15;;;28.60;91.70;;;;;;5053755;28;20029;-75
2021/07/08 08:37:54;;;;;;;2.50;2.30;;;28.60;91.90;;;;;;5054129;28;20021;-75
2021/07/08 08:40:22;;;;;;;2.22;2.03;;;28.60;91.50;;;;;;5055169;28;20067;-75
2021/07/08 08:42:48;;;;;;;2.40;2.13;;;28.70;91.50;;;;;;5051676;28;20021;-75
2021/07/08 08:45:17;;;;;;;1.98;1.88;;;28.70;91.50;;;;;;5050623;28;20025;-75
2021/07/08 08:47:56;;;;;;;3.65;1.85;;;28.70;90.30;;;;;;5050811;28;20536;-75
2021/07/08 08:50:22;;;;;;;2.20;2.10;;;28.80;90.70;;;;;;5050702;28;20021;-75
2021/07/08 08:52:50;;;;;;;2.50;2.30;;;28.80;90.90;;;;;;5051638;28;20128;-75
2021/07/08 08:55:16;;;;;;;2.55;2.30;;;28.80;90.80;;;;;;5051298;28;20028;-75
2021/07/08 08:57:42;;;;;;;2.20;2.10;;;28.80;91.10;;;;;;5048669;28;20028;-75
2021/07/08 09:00:26;;;;;;;2.40;2.30;;;28.90;91.10;;;;;;5042250;28;20029;-75
2021/07/08 09:03:02;;;;;;;4.15;2.53;;;28.90;91.00;;;;;;5050086;28;20513;-75
2021/07/08 09:05:28;;;;;;;2.92;2.63;;;28.90;91.00;;;;;;5052846;28;20402;-76
2021/07/08 09:08:09;;;;;;;2.60;2.40;;;28.90;91.10;;;;;;5054897;28;20025;-75
2021/07/08 09:10:35;;;;;;;4.93;2.92;;;28.90;90.90;;;;;;5052853;28;20466;-76
2021/07/08 09:13:01;;;;;;;2.80;2.60;;;28.90;90.60;;;;;;5053398;28;20372;-75
2021/07/08 09:15:27;;;;;;;3.28;2.65;;;28.90;90.50;;;;;;5053262;28;20028;-76
2021/07/08 09:17:52;;;;;;;4.82;2.88;;;29.00;90.90;;;;;;5054968;28;20025;-75
2021/07/08 09:20:20;;;;;;;2.47;2.08;;;29.10;90.70;;;;;;5054718;28;20104;-75
2021/07/08 09:22:47;;;;;;;2.58;2.38;;;29.10;90.70;;;;;;5054771;28;20021;-77
2021/07/08 09:25:18;;;;;;;2.63;2.45;;;29.20;90.30;;;;;;5053022;28;20060;-77
2021/07/08 09:27:45;;;;;;;2.97;2.40;;;29.20;90.00;;;;;;5054135;28;20025;-77
2021/07/08 09:30:24;;;;;;;5.05;3.20;;;29.20;89.60;;;;;;5054109;28;20017;-77
2021/07/08 09:32:50;;;;;;;3.85;2.80;;;29.20;90.10;;;;;;5054157;28;20029;-77
2021/07/08 09:35:38;;;;;;;3.78;2.83;;;29.20;90.00;;;;;;5054108;28;20044;-77
2021/07/08 09:38:09;;;;;;;3.05;2.55;;;29.20;90.10;;;;;;5053091;28;20032;-77
2021/07/08 09:40:35;;;;;;;3.45;2.70;;;29.20;90.20;;;;;;5053089;28;20442;-77
2021/07/08 09:43:01;;;;;;;2.80;2.55;;;29.20;90.90;;;;;;5054422;28;20017;-77
2021/07/08 09:45:27;;;;;;;5.38;2.80;;;29.20;90.60;;;;;;5054332;28;20025;-77
2021/07/08 09:48:09;;;;;;;8.93;3.05;;;29.30;90.50;;;;;;5052765;28;20075;-77
2021/07/08 09:50:36;;;;;;;;;;;29.30;91.30;;;;;;5053029;28;20052;-76
2021/07/08 09:53:05;;;;;;;5.95;2.78;;;29.30;92.70;;;;;;5057237;28;19924;-77
2021/07/08 09:58:30;;;;;;;5.55;2.53;;;29.40;90.70;;;;;;5048986;28;20035;-76
2021/07/08 10:00:57;;;;;;;4.55;3.13;;;29.50;91.70;;;;;;5053260;28;20033;-77
2021/07/08 10:03:23;;;;;;;4.82;2.45;;;29.50;90.70;;;;;;5050744;28;20028;-77
2021/07/08 10:05:49;;;;;;;3.45;2.45;;;29.60;91.40;;;;;;5051762;28;20036;-77
2021/07/08 10:08:14;;;;;;;3.85;2.22;;;29.60;90.90;;;;;;5052527;28;20123;-77
2021/07/08 10:10:42;;;;;;;2.03;1.92;;;29.60;86.30;;;;;;5052391;28;20025;-78
2021/07/08 10:13:09;;;;;;;2.60;1.60;;;29.80;86.70;;;;;;5053053;28;20499;-77
2021/07/08 10:15:39;;;;;;;2.30;1.77;;;29.90;84.70;;;;;;5052124;28;20474;-77
2021/07/08 10:18:07;;;;;;;2.25;2.15;;;29.90;85.50;;;;;;5053101;28;20029;-77
2021/07/08 10:20:34;;;;;;;1.70;1.60;;;30.00;85.10;;;;;;5051072;28;20037;-77
2021/07/08 10:23:00;;;;;;;4.15;2.10;;;30.00;82.90;;;;;;5052414;28;20021;-77
2021/07/08 10:25:26;;;;;;;2.25;1.98;;;30.30;81.10;;;;;;5051568;28;20640;-77
2021/07/08 10:27:54;;;;;;;1.55;1.45;;;30.30;80.20;;;;;;5052119;28;20021;-77
2021/07/08 10:30:21;;;;;;;2.08;1.83;;;30.40;80.60;;;;;;5051291;28;20483;-77
2021/07/08 10:32:57;;;;;;;1.90;1.80;;;30.50;80.50;;;;;;5052540;28;20032;-77
2021/07/08 10:35:38;;;;;;;4.43;1.95;;;30.60;78.80;;;;;;5052818;28;20078;-77
2021/07/08 10:38:41;;;;;;;3.33;1.60;;;30.80;75.20;;;;;;5051438;28;20124;-77
2021/07/08 10:41:10;;;;;;;1.88;1.77;;;30.90;74.60;;;;;;5047081;28;20138;-76
2021/07/08 10:43:38;;;;;;;2.92;1.98;;;31.00;74.40;;;;;;5040593;28;20033;-77
2021/07/08 10:46:08;;;;;;;1.63;1.52;;;31.00;73.30;;;;;;5051092;28;20427;-77
2021/07/08 10:48:48;;;;;;;1.80;1.70;;;31.20;71.40;;;;;;5052489;28;20025;-76
2021/07/08 10:51:27;;;;;;;1.75;1.70;;;31.30;71.90;;;;;;5052587;28;20025;-77
2021/07/08 10:53:52;;;;;;;2.15;1.75;;;31.20;72.10;;;;;;5052523;28;20037;-77
2021/07/08 10:56:31;;;;;;;2.20;1.63;;;31.20;72.80;;;;;;5052663;28;20437;-77
2021/07/08 10:58:57;;;;;;;3.63;2.00;;;31.30;69.50;;;;;;5050976;28;20036;-77
2021/07/08 11:01:23;;;;;;;1.70;1.60;;;31.40;67.90;;;;;;5051481;28;20025;-77
2021/07/08 11:04:02;;;;;;;1.52;1.42;;;31.60;70.00;;;;;;5051046;28;20044;-77
2021/07/08 11:06:34;;;;;;;2.47;1.60;;;31.50;67.40;;;;;;5051262;28;20196;-77
2021/07/08 11:09:07;;;;;;;1.48;1.48;;;31.30;67.10;;;;;;5051762;28;20120;-77
2021/07/08 11:11:33;;;;;;;1.95;1.60;;;31.20;67.60;;;;;;5043006;28;20022;-77
2021/07/08 11:14:08;;;;;;;1.60;1.50;;;31.10;66.20;;;;;;5031797;28;20029;-77
2021/07/08 11:16:43;;;;;;;1.80;1.70;;;30.90;64.30;;;;;;5043698;28;20376;-77
2021/07/08 11:19:12;;;;;;;2.65;1.52;;;30.80;61.00;;;;;;5051263;28;20483;-76
2021/07/08 11:21:57;;;;;;;1.80;1.70;;;30.90;63.80;;;;;;5052129;28;20032;-76
2021/07/08 11:24:29;;;;;;;1.50;1.40;;;31.10;64.40;;;;;;5052469;28;20060;-76
2021/07/08 11:26:55;;;;;;;1.65;1.55;;;31.10;68.50;;;;;;5052367;28;20470;-76
2021/07/08 11:29:37;;;;;;;6.03;1.77;;;31.20;68.40;;;;;;5051823;28;20033;-76
2021/07/08 11:32:55;;;;;;;2.05;1.30;;;31.40;62.80;;;;;;5050427;28;20033;-76
2021/07/08 11:35:29;;;;;;;1.38;1.27;;;31.50;65.90;;;;;;5031762;28;20033;-76
2021/07/08 11:38:05;;;;;;;1.80;1.40;;;31.60;62.30;;;;;;5050914;28;20021;-76
2021/07/08 11:40:44;;;;;;;1.40;1.33;;;31.60;61.00;;;;;;5051940;28;20025;-76
2021/07/08 11:43:14;;;;;;;1.73;1.40;;;31.70;60.50;;;;;;5047036;28;20024;-76
2021/07/08 11:45:41;;;;;;;1.50;1.40;;;31.70;59.30;;;;;;5051993;28;20078;-76
2021/07/08 11:48:07;;;;;;;1.92;1.30;;;31.90;60.80;;;;;;5052284;28;20029;-76
2021/07/08 11:50:35;;;;;;;1.45;1.35;;;32.00;60.80;;;;;;5051808;28;20116;-76
2021/07/08 11:53:14;;;;;;;6.82;1.45;;;31.90;58.20;;;;;;5051660;28;20438;-76
2021/07/08 11:55:41;;;;;;;1.38;1.33;;;31.80;60.60;;;;;;5051818;28;20032;-75
2021/07/08 11:58:08;;;;;;;1.10;1.10;;;31.80;59.70;;;;;;5051675;28;20521;-76
2021/07/08 12:00:38;;;;;;;2.17;1.48;;;31.70;60.90;;;;;;5055622;28;20037;-76
2021/07/08 12:03:23;;;;;;;1.27;1.27;;;31.60;60.10;;;;;;5055458;28;20017;-76
2021/07/08 12:06:09;;;;;;;4.60;1.10;;;31.50;59.00;;;;;;5053877;28;20052;-76
2021/07/08 12:08:37;;;;;;;1.52;1.42;;;31.40;58.80;;;;;;5049565;28;20064;-76
2021/07/08 12:11:09;;;;;;;1.40;1.30;;;31.30;60.40;;;;;;5052325;28;20033;-75
2021/07/08 12:13:37;;;;;;;1.38;1.38;;;31.30;61.80;;;;;;5053187;28;20116;-76
2021/07/08 12:16:07;;;;;;;4.40;1.95;;;31.10;60.30;;;;;;5054849;28;20024;-75
2021/07/08 12:19:00;;;;;;;1.40;1.40;;;31.00;58.90;;;;;;5054301;28;20108;-75
2021/07/08 12:21:26;;;;;;;1.73;1.63;;;31.00;61.20;;;;;;5051891;28;20029;-76
2021/07/08 12:23:55;;;;;;;1.52;1.48;;;31.00;63.30;;;;;;5054305;28;20033;-75
2021/07/08 12:26:27;;;;;;;1.30;1.30;;;31.00;64.20;;;;;;5052063;28;20040;-76
2021/07/08 12:29:17;;;;;;;1.20;1.20;;;31.00;64.70;;;;;;5051336;28;20112;-75
2021/07/08 12:32:01;;;;;;;1.98;1.77;;;31.00;64.10;;;;;;5047338;28;20047;-76
2021/07/08 12:34:47;;;;;;;4.20;1.67;;;31.00;64.40;;;;;;5051222;28;20108;-76
2021/07/08 12:37:23;;;;;;;1.63;1.58;;;30.90;67.40;;;;;;5049764;28;20013;-75
2021/07/08 12:39:58;;;;;;;1.40;1.30;;;30.80;68.10;;;;;;5053411;28;20512;-76
2021/07/08 12:42:26;;;;;;;7.53;1.38;;;30.70;65.80;;;;;;5054243;28;20060;-76
2021/07/08 12:44:54;;;;;;;2.95;1.42;;;30.70;65.20;;;;;;5054049;28;20056;-76
2021/07/08 12:47:21;;;;;;;1.27;1.20;;;30.70;60.20;;;;;;5054098;28;20071;-75
2021/07/08 12:49:49;;;;;;;1.42;1.30;;;30.60;61.10;;;;;;5054416;28;20433;-76
2021/07/08 12:52:15;;;;;;;1.40;1.30;;;30.60;62.40;;;;;;5053512;28;20479;-75
2021/07/08 12:54:41;;;;;;;1.50;1.40;;;30.40;63.00;;;;;;5052717;28;20574;-75
2021/07/08 12:57:13;;;;;;;1.40;1.33;;;30.40;62.50;;;;;;5053687;28;20096;-76